Time;durP1;ratioP1;P1;durP2;ratioP2;P2;SDS_P1;SDS_P2;PMS_P1;PMS_P2;Temp;Humidity;BMP_temperature;BMP_pressure;BME280_temperature;BME280_humidity;BME280_pressure;Samples;Min_cycle;Max_cycle;Signal;HPM_P1;HPM_P2
2022/06/28 00:00:09;;;;;;;12.27;10.18;;;;;;;;;;5091819;28;20130;-65
2022/06/28 00:02:35;;;;;;;12.30;10.98;;;;;;;;;;5103119;28;20584;-65
2022/06/28 00:05:01;;;;;;;12.32;11.05;;;;;;;;;;5099477;28;20031;-65
2022/06/28 00:07:28;;;;;;;13.70;10.23;;;;;;;;;;5092453;28;20046;-64
2022/06/28 00:09:54;;;;;;;12.60;11.02;;;;;;;;;;5093106;28;20039;-65
2022/06/28 00:12:20;;;;;;;11.82;10.63;;;;;;;;;;5100460;28;20565;-65
2022/06/28 00:17:31;;;;;;;14.48;10.90;;;;;;;;;;5111977;28;20039;-64
2022/06/28 00:19:57;;;;;;;10.88;9.77;;;;;;;;;;5109219;28;20486;-65
2022/06/28 00:22:23;;;;;;;12.82;9.90;;;;;;;;;;5110072;28;20038;-65
2022/06/28 00:24:49;;;;;;;12.07;10.13;;;;;;;;;;5110157;28;20493;-65
2022/06/28 00:27:15;;;;;;;13.00;10.57;;;;;;;;;;5104322;28;20039;-65
2022/06/28 00:29:41;;;;;;;13.05;10.60;;;;;;;;;;5109953;27;20134;-65
2022/06/28 00:32:07;;;;;;;12.00;10.65;;;;;;;;;;5107422;28;20036;-65
2022/06/28 00:34:33;;;;;;;12.23;10.00;;;;;;;;;;5105752;28;20044;-65
2022/06/28 00:36:59;;;;;;;14.73;11.05;;;;;;;;;;5106698;28;20042;-65
2022/06/28 00:39:25;;;;;;;13.30;10.75;;;;;;;;;;5111362;28;20035;-65
2022/06/28 00:41:51;;;;;;;14.30;10.60;;;;;;;;;;5112065;28;20035;-65
2022/06/28 00:44:18;;;;;;;11.65;10.02;;;;;;;;;;5100027;28;20051;-65
2022/06/28 00:46:44;;;;;;;12.15;10.23;;;;;;;;;;5102302;28;20071;-65
2022/06/28 00:49:10;;;;;;;11.80;9.60;;;;;;;;;;5097754;27;20032;-65
2022/06/28 00:51:36;;;;;;;12.25;10.02;;;;;;;;;;5102878;28;20043;-65
2022/06/28 00:54:03;;;;;;;10.88;9.77;;;;;;;;;;5113908;28;20031;-65
2022/06/28 00:56:29;;;;;;;12.77;9.50;;;;;;;;;;5113022;28;20488;-65
2022/06/28 00:58:55;;;;;;;10.68;9.63;;;;;;;;;;5101092;28;20091;-65
2022/06/28 01:01:22;;;;;;;10.27;8.98;;;;;;;;;;5110058;28;20089;-65
2022/06/28 01:03:48;;;;;;;11.02;8.88;;;;;;;;;;5107900;28;20035;-65
2022/06/28 01:06:14;;;;;;;13.25;9.68;;;;;;;;;;5112225;27;20027;-65
2022/06/28 01:08:40;;;;;;;13.32;9.55;;;;;;;;;;5114316;28;20036;-65
2022/06/28 01:11:19;;;;;;;13.68;10.48;;;;;;;;;;5098912;28;20039;-65
2022/06/28 01:13:47;;;;;;;12.48;10.55;;;;;;;;;;5109925;28;20652;-65
2022/06/28 01:16:14;;;;;;;12.65;9.80;;;;;;;;;;5112963;28;20175;-65
2022/06/28 01:18:40;;;;;;;12.63;9.90;;;;;;;;;;5105201;27;20040;-65
2022/06/28 01:21:06;;;;;;;12.80;8.98;;;;;;;;;;5106161;28;20074;-65
2022/06/28 01:23:32;;;;;;;13.85;10.18;;;;;;;;;;5105502;28;20051;-65
2022/06/28 01:25:59;;;;;;;13.70;10.10;;;;;;;;;;5104270;28;20036;-65
2022/06/28 01:28:25;;;;;;;12.23;10.93;;;;;;;;;;5093197;28;20123;-65
2022/06/28 01:30:51;;;;;;;12.70;10.02;;;;;;;;;;5099292;28;20120;-64
2022/06/28 01:33:18;;;;;;;14.65;10.80;;;;;;;;;;5110565;28;20035;-65
2022/06/28 01:35:44;;;;;;;13.25;10.73;;;;;;;;;;5098728;28;20032;-65
2022/06/28 01:38:10;;;;;;;10.88;9.45;;;;;;;;;;5106884;28;20039;-65
2022/06/28 01:40:37;;;;;;;10.88;9.55;;;;;;;;;;5106057;28;20392;-65
2022/06/28 01:43:03;;;;;;;13.02;9.88;;;;;;;;;;5107948;28;20489;-65
2022/06/28 01:45:29;;;;;;;12.65;10.13;;;;;;;;;;5107557;28;20524;-65
2022/06/28 01:47:55;;;;;;;11.55;8.85;;;;;;;;;;5106409;28;20040;-64
2022/06/28 01:50:21;;;;;;;11.30;9.25;;;;;;;;;;5106533;28;20528;-64
2022/06/28 01:52:47;;;;;;;12.98;8.98;;;;;;;;;;5110061;28;20258;-64
2022/06/28 01:55:13;;;;;;;13.95;10.30;;;;;;;;;;5112247;28;20035;-64
2022/06/28 01:57:40;;;;;;;14.50;10.00;;;;;;;;;;5092876;28;20048;-64
2022/06/28 02:00:08;;;;;;;11.98;9.25;;;;;;;;;;5106099;28;20039;-65
2022/06/28 02:02:34;;;;;;;13.57;10.23;;;;;;;;;;5101924;28;20409;-64
2022/06/28 02:05:00;;;;;;;13.82;10.02;;;;;;;;;;5110863;28;20036;-64
2022/06/28 02:07:26;;;;;;;12.65;10.23;;;;;;;;;;5099530;28;20039;-65
2022/06/28 02:09:52;;;;;;;14.48;10.10;;;;;;;;;;5108862;28;20042;-65
2022/06/28 02:12:18;;;;;;;17.08;11.98;;;;;;;;;;5097719;28;20040;-65
2022/06/28 02:14:44;;;;;;;15.25;11.23;;;;;;;;;;5107004;28;20043;-64
2022/06/28 02:17:11;;;;;;;14.55;10.23;;;;;;;;;;5109155;28;20032;-64
2022/06/28 02:19:37;;;;;;;17.98;11.32;;;;;;;;;;5099340;28;20032;-64
2022/06/28 02:22:03;;;;;;;12.88;10.57;;;;;;;;;;5101165;28;20113;-64
2022/06/28 02:24:30;;;;;;;13.63;11.45;;;;;;;;;;5104773;28;20043;-64
2022/06/28 02:26:56;;;;;;;15.80;11.00;;;;;;;;;;5103521;28;20100;-64
2022/06/28 02:29:22;;;;;;;12.50;11.15;;;;;;;;;;5112748;28;20067;-64
2022/06/28 02:31:48;;;;;;;15.85;11.35;;;;;;;;;;5096705;28;20485;-64
2022/06/28 02:40:21;;;;;;;16.10;13.23;;;;;;;;;;5100689;28;20031;-65
2022/06/28 02:42:30;;;;;;;16.42;11.90;;;;;;;;;;5104149;28;22018;-64
2022/06/28 02:44:56;;;;;;;13.25;10.25;;;;;;;;;;5101409;28;20101;-64
2022/06/28 02:47:22;;;;;;;14.43;11.95;;;;;;;;;;5110716;28;20040;-64
2022/06/28 02:49:48;;;;;;;12.90;11.00;;;;;;;;;;5092594;28;20475;-64
2022/06/28 02:52:14;;;;;;;13.57;12.13;;;;;;;;;;5093919;28;20064;-65
2022/06/28 02:54:40;;;;;;;15.43;11.77;;;;;;;;;;5105382;28;20114;-65
2022/06/28 02:57:06;;;;;;;17.88;12.75;;;;;;;;;;5111971;28;20037;-64
2022/06/28 02:59:32;;;;;;;17.08;12.90;;;;;;;;;;5093232;28;20042;-65
2022/06/28 03:01:58;;;;;;;19.00;13.52;;;;;;;;;;5098781;28;20042;-64
2022/06/28 03:04:24;;;;;;;20.63;14.23;;;;;;;;;;5105371;28;20039;-64
2022/06/28 03:06:50;;;;;;;19.15;14.88;;;;;;;;;;5100192;28;20036;-64
2022/06/28 03:09:16;;;;;;;19.45;14.23;;;;;;;;;;5112050;28;20044;-64
2022/06/28 03:11:42;;;;;;;24.88;14.30;;;;;;;;;;5104891;28;20035;-64
2022/06/28 03:14:08;;;;;;;18.08;13.73;;;;;;;;;;5099662;28;20040;-65
2022/06/28 03:16:34;;;;;;;16.13;12.80;;;;;;;;;;5110985;28;20508;-65
2022/06/28 03:19:00;;;;;;;17.33;14.07;;;;;;;;;;5109443;28;20044;-65
2022/06/28 03:21:26;;;;;;;19.55;13.82;;;;;;;;;;5106251;28;20059;-64
2022/06/28 03:23:52;;;;;;;17.00;13.45;;;;;;;;;;5095780;28;20042;-65
2022/06/28 03:26:18;;;;;;;17.02;14.02;;;;;;;;;;5111621;28;20477;-65
2022/06/28 03:28:44;;;;;;;17.00;14.57;;;;;;;;;;5098504;28;20040;-64
2022/06/28 03:31:10;;;;;;;18.35;13.07;;;;;;;;;;5097365;28;20028;-65
2022/06/28 03:33:36;;;;;;;17.90;14.45;;;;;;;;;;5094880;28;20043;-64
2022/06/28 03:36:02;;;;;;;17.48;14.02;;;;;;;;;;5110638;28;20044;-64
2022/06/28 03:38:28;;;;;;;15.05;13.32;;;;;;;;;;5108906;28;20036;-64
2022/06/28 03:40:55;;;;;;;19.30;14.00;;;;;;;;;;5103745;28;20066;-64
2022/06/28 03:43:21;;;;;;;16.60;13.30;;;;;;;;;;5097681;28;20044;-64
2022/06/28 03:45:47;;;;;;;18.23;12.57;;;;;;;;;;5105014;28;20488;-65
2022/06/28 03:48:13;;;;;;;18.27;14.48;;;;;;;;;;5103404;28;20038;-64
2022/06/28 03:50:39;;;;;;;18.10;14.05;;;;;;;;;;5108628;28;20056;-65
2022/06/28 03:53:05;;;;;;;15.90;14.20;;;;;;;;;;5095872;28;20470;-65
2022/06/28 03:55:31;;;;;;;20.90;15.77;;;;;;;;;;5113194;28;20092;-64
2022/06/28 03:57:57;;;;;;;19.33;14.52;;;;;;;;;;5100634;27;20040;-64
2022/06/28 04:00:23;;;;;;;16.60;14.32;;;;;;;;;;5095151;28;20405;-64
2022/06/28 04:02:49;;;;;;;18.20;14.85;;;;;;;;;;5109558;28;20128;-64
2022/06/28 04:05:15;;;;;;;23.92;15.13;;;;;;;;;;5109810;28;20035;-64
2022/06/28 04:07:42;;;;;;;18.25;14.85;;;;;;;;;;5114844;28;20140;-65
2022/06/28 04:10:08;;;;;;;18.48;14.32;;;;;;;;;;5112464;28;20039;-65
2022/06/28 04:12:34;;;;;;;19.23;14.20;;;;;;;;;;5101541;28;20062;-64
2022/06/28 04:15:00;;;;;;;18.85;14.75;;;;;;;;;;5107956;28;20489;-65
2022/06/28 04:17:26;;;;;;;21.20;15.27;;;;;;;;;;5112497;28;20047;-65
2022/06/28 04:19:52;;;;;;;18.90;15.05;;;;;;;;;;5121531;22;20059;-62
2022/06/28 04:22:18;;;;;;;22.33;15.68;;;;;;;;;;5112040;27;20043;-62
2022/06/28 04:24:44;;;;;;;19.92;15.48;;;;;;;;;;5117301;27;20035;-61
2022/06/28 04:27:10;;;;;;;20.20;15.35;;;;;;;;;;5128618;27;20031;-62
2022/06/28 04:29:36;;;;;;;22.08;15.77;;;;;;;;;;5128482;27;20028;-62
2022/06/28 04:32:02;;;;;;;17.90;14.57;;;;;;;;;;5102639;28;20114;-62
2022/06/28 04:34:28;;;;;;;18.92;15.00;;;;;;;;;;5113457;28;20416;-62
2022/06/28 04:36:54;;;;;;;19.63;15.27;;;;;;;;;;5119785;27;20031;-62
2022/06/28 04:39:20;;;;;;;21.58;15.27;;;;;;;;;;5116664;27;20042;-62
2022/06/28 04:41:46;;;;;;;19.33;15.30;;;;;;;;;;5100162;28;20059;-62
2022/06/28 04:44:12;;;;;;;20.92;15.48;;;;;;;;;;5104924;28;20039;-62
2022/06/28 04:46:38;;;;;;;22.33;15.70;;;;;;;;;;5118335;27;20396;-62
2022/06/28 04:49:04;;;;;;;23.33;16.23;;;;;;;;;;5126245;27;20481;-62
2022/06/28 04:51:30;;;;;;;19.50;15.57;;;;;;;;;;5107803;27;20036;-62
2022/06/28 04:53:56;;;;;;;23.75;16.55;;;;;;;;;;5106656;28;20032;-62
2022/06/28 04:56:24;;;;;;;21.48;15.50;;;;;;;;;;5119469;27;20035;-62
2022/06/28 04:58:51;;;;;;;21.75;15.23;;;;;;;;;;5110434;28;20035;-62
2022/06/28 05:01:17;;;;;;;21.85;15.70;;;;;;;;;;5099397;28;20047;-63
2022/06/28 05:03:43;;;;;;;19.80;15.77;;;;;;;;;;5106859;28;20485;-62
2022/06/28 05:06:09;;;;;;;19.85;14.32;;;;;;;;;;5103789;28;20051;-63
2022/06/28 05:08:35;;;;;;;19.02;14.35;;;;;;;;;;5087437;28;20032;-63
2022/06/28 05:11:02;;;;;;;18.60;14.65;;;;;;;;;;5102145;28;20036;-62
2022/06/28 05:13:29;;;;;;;23.00;14.38;;;;;;;;;;5097036;28;20043;-62
2022/06/28 05:15:55;;;;;;;18.77;14.75;;;;;;;;;;5089168;28;20131;-62
2022/06/28 05:18:21;;;;;;;16.88;14.18;;;;;;;;;;5074962;28;20119;-63
2022/06/28 05:20:47;;;;;;;18.92;14.35;;;;;;;;;;5105013;28;20084;-62
2022/06/28 05:23:13;;;;;;;21.45;14.05;;;;;;;;;;5087034;28;20048;-62
2022/06/28 05:25:39;;;;;;;18.45;13.95;;;;;;;;;;5095202;28;20027;-62
2022/06/28 05:28:05;;;;;;;19.35;14.23;;;;;;;;;;5078823;28;20550;-62
2022/06/28 05:30:31;;;;;;;19.17;13.90;;;;;;;;;;5111481;28;20077;-62
2022/06/28 05:32:57;;;;;;;18.52;13.68;;;;;;;;;;5103760;28;20039;-62
2022/06/28 05:35:23;;;;;;;17.83;13.93;;;;;;;;;;5113624;27;20046;-62
2022/06/28 05:37:49;;;;;;;17.98;12.43;;;;;;;;;;5102180;28;20404;-62
2022/06/28 05:40:15;;;;;;;18.85;13.15;;;;;;;;;;5082867;28;20044;-62
2022/06/28 05:42:41;;;;;;;17.98;13.55;;;;;;;;;;5110047;28;20508;-62
2022/06/28 05:45:08;;;;;;;17.55;12.68;;;;;;;;;;5106554;27;20043;-62
2022/06/28 05:47:34;;;;;;;19.52;12.63;;;;;;;;;;5103681;28;20036;-62
2022/06/28 05:50:00;;;;;;;16.02;12.23;;;;;;;;;;5083135;28;20040;-62
2022/06/28 05:52:26;;;;;;;18.48;13.20;;;;;;;;;;5095942;27;20046;-62
2022/06/28 05:54:52;;;;;;;17.35;12.07;;;;;;;;;;5083928;28;21069;-62
2022/06/28 05:57:18;;;;;;;16.38;12.10;;;;;;;;;;5107577;28;20048;-62
2022/06/28 05:59:44;;;;;;;17.88;11.70;;;;;;;;;;5104271;27;20036;-62
2022/06/28 06:02:10;;;;;;;17.70;12.75;;;;;;;;;;5102919;28;20073;-62
2022/06/28 06:04:36;;;;;;;20.10;12.82;;;;;;;;;;5107495;28;20044;-62
2022/06/28 06:07:02;;;;;;;17.02;11.93;;;;;;;;;;5103012;28;20171;-62
2022/06/28 06:09:28;;;;;;;18.38;11.80;;;;;;;;;;5089933;28;20044;-62
2022/06/28 06:11:54;;;;;;;16.27;11.65;;;;;;;;;;5107479;28;20042;-62
2022/06/28 06:14:21;;;;;;;11.48;9.35;;;;;;;;;;5104538;28;20044;-62
2022/06/28 06:16:50;;;;;;;14.85;10.38;;;;;;;;;;5107241;28;20040;-62
2022/06/28 06:19:16;;;;;;;13.55;10.90;;;;;;;;;;5097709;28;20063;-63
2022/06/28 06:21:42;;;;;;;15.13;11.00;;;;;;;;;;5107684;28;20473;-62
2022/06/28 06:24:09;;;;;;;15.40;11.40;;;;;;;;;;5106603;28;20067;-62
2022/06/28 06:26:35;;;;;;;16.33;10.63;;;;;;;;;;5091746;28;20058;-63
2022/06/28 06:29:01;;;;;;;16.42;10.48;;;;;;;;;;5100205;28;20081;-64
2022/06/28 06:31:28;;;;;;;15.20;10.18;;;;;;;;;;5088008;28;20035;-64
2022/06/28 06:33:54;;;;;;;14.30;8.88;;;;;;;;;;5095116;28;20035;-64
2022/06/28 06:36:21;;;;;;;14.20;8.85;;;;;;;;;;5094995;28;20218;-64
2022/06/28 06:38:47;;;;;;;15.88;8.27;;;;;;;;;;5087416;28;20070;-64
2022/06/28 06:41:14;;;;;;;12.95;9.02;;;;;;;;;;5102159;28;20031;-64
2022/06/28 06:43:39;;;;;;;14.25;8.60;;;;;;;;;;5095582;28;20035;-64
2022/06/28 06:46:05;;;;;;;12.88;8.70;;;;;;;;;;5099133;28;20078;-64
2022/06/28 06:48:32;;;;;;;14.85;8.50;;;;;;;;;;5096968;28;20081;-64
2022/06/28 06:50:58;;;;;;;14.27;8.90;;;;;;;;;;5098014;28;20539;-64
2022/06/28 06:53:24;;;;;;;14.73;8.70;;;;;;;;;;5083230;28;20517;-64
2022/06/28 06:55:50;;;;;;;12.32;8.68;;;;;;;;;;5096554;28;20484;-65
2022/06/28 06:58:16;;;;;;;17.73;8.75;;;;;;;;;;5104760;28;20041;-64
2022/06/28 07:00:42;;;;;;;18.92;8.38;;;;;;;;;;5085709;28;20039;-64
2022/06/28 07:03:08;;;;;;;15.77;9.07;;;;;;;;;;5108985;28;20040;-64
2022/06/28 07:05:34;;;;;;;12.80;9.10;;;;;;;;;;5102439;28;20061;-64
2022/06/28 07:08:00;;;;;;;15.95;8.80;;;;;;;;;;5105397;28;20115;-64
2022/06/28 07:10:26;;;;;;;15.60;8.50;;;;;;;;;;5102627;28;20035;-64
2022/06/28 07:12:52;;;;;;;12.50;8.23;;;;;;;;;;5098910;28;20053;-64
2022/06/28 07:15:19;;;;;;;12.10;7.80;;;;;;;;;;5099853;28;20039;-64
2022/06/28 07:17:46;;;;;;;15.18;9.35;;;;;;;;;;5097220;28;20036;-65
2022/06/28 07:20:12;;;;;;;14.23;8.52;;;;;;;;;;5103596;28;20035;-64
2022/06/28 07:22:38;;;;;;;12.95;8.85;;;;;;;;;;5103617;28;20067;-64
2022/06/28 07:25:04;;;;;;;14.00;8.45;;;;;;;;;;5099758;28;20043;-64
2022/06/28 07:27:30;;;;;;;11.63;8.35;;;;;;;;;;5092126;28;20130;-64
2022/06/28 07:29:56;;;;;;;14.32;8.10;;;;;;;;;;5108899;28;20127;-64
2022/06/28 07:32:22;;;;;;;15.48;8.70;;;;;;;;;;5099810;28;20115;-64
2022/06/28 07:34:48;;;;;;;15.57;7.85;;;;;;;;;;5101194;28;20035;-64
2022/06/28 07:37:14;;;;;;;11.90;8.02;;;;;;;;;;5109596;28;20042;-64
2022/06/28 07:39:40;;;;;;;14.18;7.95;;;;;;;;;;5109446;28;20027;-64
2022/06/28 07:42:06;;;;;;;13.02;7.57;;;;;;;;;;5099537;28;20469;-64
2022/06/28 07:44:32;;;;;;;16.00;7.38;;;;;;;;;;5106473;28;20120;-64
2022/06/28 07:46:59;;;;;;;11.57;7.20;;;;;;;;;;5109783;28;20469;-64
2022/06/28 07:52:33;;;;;;;12.13;7.05;;;;;;;;;;5104141;28;20489;-65
2022/06/28 07:54:55;;;;;;;10.27;6.80;;;;;;;;;;5100343;28;20071;-64
2022/06/28 07:57:21;;;;;;;10.07;6.68;;;;;;;;;;5099946;28;20120;-64
2022/06/28 07:59:47;;;;;;;10.35;4.68;;;;;;;;;;5109582;28;20028;-64
2022/06/28 08:02:13;;;;;;;9.73;4.40;;;;;;;;;;5104646;28;20401;-64
2022/06/28 08:04:39;;;;;;;12.02;4.93;;;;;;;;;;5104618;28;20036;-64
2022/06/28 08:07:05;;;;;;;8.55;5.18;;;;;;;;;;5081277;28;20473;-64
2022/06/28 08:09:31;;;;;;;11.55;5.47;;;;;;;;;;5099417;28;20028;-64
2022/06/28 08:11:57;;;;;;;11.35;5.50;;;;;;;;;;5083983;28;20047;-64
2022/06/28 08:14:23;;;;;;;8.55;3.55;;;;;;;;;;5094309;28;20040;-64
2022/06/28 08:16:49;;;;;;;8.57;3.60;;;;;;;;;;5107975;28;20115;-64
2022/06/28 08:19:15;;;;;;;9.07;3.90;;;;;;;;;;5098747;28;20043;-64
2022/06/28 08:21:42;;;;;;;12.50;5.22;;;;;;;;;;5096960;28;20032;-64
2022/06/28 08:24:08;;;;;;;12.88;5.07;;;;;;;;;;5099390;28;20043;-64
2022/06/28 08:26:40;;;;;;;11.48;4.45;;;;;;;;;;5113200;28;20046;-64
2022/06/28 08:29:06;;;;;;;8.20;3.88;;;;;;;;;;5112258;28;20058;-64
2022/06/28 08:31:32;;;;;;;7.80;4.10;;;;;;;;;;5103930;28;20063;-64
2022/06/28 08:33:58;;;;;;;10.68;4.00;;;;;;;;;;5098337;28;20051;-64
2022/06/28 08:36:25;;;;;;;8.05;4.00;;;;;;;;;;5100846;28;20040;-64
2022/06/28 08:38:51;;;;;;;7.75;3.35;;;;;;;;;;5123211;27;20039;-63
2022/06/28 08:41:17;;;;;;;6.68;2.80;;;;;;;;;;5114967;27;20089;-64
2022/06/28 08:43:43;;;;;;;8.70;3.42;;;;;;;;;;5108113;28;20122;-63
2022/06/28 08:46:09;;;;;;;9.38;3.40;;;;;;;;;;5105922;27;20609;-64
2022/06/28 08:48:39;;;;;;;6.50;2.97;;;;;;;;;;5095963;27;20396;-64
2022/06/28 08:51:07;;;;;;;6.68;3.05;;;;;;;;;;5100125;28;20032;-64
2022/06/28 08:53:35;;;;;;;5.70;3.13;;;;;;;;;;5107506;28;20477;-64
2022/06/28 08:56:01;;;;;;;7.03;2.70;;;;;;;;;;5129074;27;20043;-63
2022/06/28 08:58:28;;;;;;;6.13;2.33;;;;;;;;;;5117738;27;20042;-63
2022/06/28 09:00:54;;;;;;;4.75;1.92;;;;;;;;;;5114653;28;20039;-64
2022/06/28 09:03:20;;;;;;;4.60;2.00;;;;;;;;;;5112391;27;20047;-64
2022/06/28 09:05:46;;;;;;;6.18;1.83;;;;;;;;;;5109466;28;20074;-63
2022/06/28 09:08:12;;;;;;;5.95;2.28;;;;;;;;;;5099153;28;20074;-64
2022/06/28 09:10:38;;;;;;;6.75;2.10;;;;;;;;;;5099538;28;20097;-64
2022/06/28 09:13:09;;;;;;;4.97;1.75;;;;;;;;;;5113976;28;20071;-64
2022/06/28 09:15:47;;;;;;;5.65;1.75;;;;;;;;;;5106144;28;20034;-64
2022/06/28 09:18:13;;;;;;;5.70;1.50;;;;;;;;;;5105388;28;20485;-64
2022/06/28 09:20:39;;;;;;;6.05;1.80;;;;;;;;;;5111619;28;20388;-64
2022/06/28 09:23:20;;;;;;;7.20;2.17;;;;;;;;;;5113859;28;20040;-64
2022/06/28 09:25:47;;;;;;;5.43;1.85;;;;;;;;;;5092692;28;20465;-64
2022/06/28 09:28:22;;;;;;;9.13;1.80;;;;;;;;;;5111221;28;20044;-64
2022/06/28 09:30:48;;;;;;;6.32;1.75;;;;;;;;;;5108362;28;20036;-64
2022/06/28 09:33:26;;;;;;;5.18;1.38;;;;;;;;;;5100542;28;20046;-64
2022/06/28 09:35:52;;;;;;;6.78;1.65;;;;;;;;;;5111533;28;20062;-64
2022/06/28 09:38:32;;;;;;;6.78;2.00;;;;;;;;;;5105959;28;20071;-64
2022/06/28 09:41:00;;;;;;;6.05;1.67;;;;;;;;;;5115672;27;20129;-64
2022/06/28 09:43:32;;;;;;;5.22;1.77;;;;;;;;;;5100072;27;20119;-64
2022/06/28 09:46:02;;;;;;;6.97;2.08;;;;;;;;;;5098417;28;20063;-64
2022/06/28 09:48:32;;;;;;;5.20;1.83;;;;;;;;;;5110565;28;20033;-64
2022/06/28 09:50:58;;;;;;;5.38;1.85;;;;;;;;;;5090225;28;20055;-63
2022/06/28 09:56:53;;;;;;;3.63;1.42;;;;;;;;;;5110466;28;20042;-64
2022/06/28 09:59:20;;;;;;;6.50;1.50;;;;;;;;;;5113559;28;20039;-64
2022/06/28 10:01:48;;;;;;;5.75;1.63;;;;;;;;;;5112930;28;20048;-64
2022/06/28 10:04:14;;;;;;;6.28;1.63;;;;;;;;;;5119274;27;20378;-64
2022/06/28 10:06:40;;;;;;;5.55;1.73;;;;;;;;;;5101274;27;20047;-64
2022/06/28 10:09:06;;;;;;;4.43;1.25;;;;;;;;;;5094187;28;20039;-64
2022/06/28 10:17:23;;;;;;;5.50;1.60;;;;;;;;;;5111603;28;20484;-65
2022/06/28 10:19:49;;;;;;;6.60;1.52;;;;;;;;;;5115695;22;20050;-64
2022/06/28 10:22:15;;;;;;;4.68;1.58;;;;;;;;;;5084744;28;20039;-64
2022/06/28 10:24:52;;;;;;;5.15;1.63;;;;;;;;;;5070652;28;20040;-63
2022/06/28 10:27:18;;;;;;;6.72;1.90;;;;;;;;;;5087587;28;20043;-63
2022/06/28 10:30:08;;;;;;;6.65;1.80;;;;;;;;;;5092317;28;20067;-63
2022/06/28 10:32:55;;;;;;;2.47;1.30;;;;;;;;;;5064552;28;20102;-63
2022/06/28 10:35:36;;;;;;;5.90;1.92;;;;;;;;;;5073408;28;20080;-63
2022/06/28 10:38:08;;;;;;;7.72;1.88;;;;;;;;;;5070481;28;20481;-61
2022/06/28 10:40:49;;;;;;;4.97;1.90;;;;;;;;;;5051531;28;20123;-61
2022/06/28 10:43:27;;;;;;;3.88;1.55;;;;;;;;;;5069748;28;20044;-62
2022/06/28 10:46:02;;;;;;;4.78;1.80;;;;;;;;;;5070445;28;20032;-62
2022/06/28 10:48:29;;;;;;;4.60;1.60;;;;;;;;;;5070868;28;20216;-62
2022/06/28 10:51:02;;;;;;;7.03;1.50;;;;;;;;;;5069752;28;20036;-61
2022/06/28 10:53:31;;;;;;;2.92;1.13;;;;;;;;;;5066890;28;20044;-62
2022/06/28 10:56:12;;;;;;;4.47;1.70;;;;;;;;;;5070191;28;20044;-62
2022/06/28 10:58:38;;;;;;;;;;;;;;;;;;5052155;28;20086;-62
2022/06/28 11:01:04;;;;;;;5.03;1.52;;;;;;;;;;5051596;28;20341;-61
2022/06/28 11:03:31;;;;;;;4.55;1.83;;;;;;;;;;5065800;28;20441;-61
2022/06/28 11:05:57;;;;;;;4.53;1.33;;;;;;;;;;5068554;28;20063;-61
2022/06/28 11:08:41;;;;;;;2.92;1.40;;;;;;;;;;5069367;28;20046;-61
2022/06/28 11:11:08;;;;;;;3.95;1.30;;;;;;;;;;5055952;28;20135;-62
2022/06/28 11:13:34;;;;;;;5.55;1.70;;;;;;;;;;5078833;28;20040;-61
2022/06/28 11:16:00;;;;;;;7.57;1.73;;;;;;;;;;5070687;28;20105;-61
2022/06/28 11:18:26;;;;;;;4.75;1.30;;;;;;;;;;5090460;28;20498;-61
2022/06/28 11:20:53;;;;;;;2.50;1.20;;;;;;;;;;5058939;28;20042;-61
2022/06/28 11:23:23;;;;;;;5.72;1.33;;;;;;;;;;5053922;28;20076;-61
2022/06/28 11:28:51;;;;;;;5.40;1.58;;;;;;;;;;5065699;28;20650;-62
2022/06/28 11:31:18;;;;;;;3.90;0.98;;;;;;;;;;5068889;28;20043;-61
2022/06/28 11:33:44;;;;;;;3.70;1.00;;;;;;;;;;5064782;28;20037;-64
2022/06/28 11:36:19;;;;;;;4.68;1.17;;;;;;;;;;5069627;28;20115;-64
2022/06/28 11:38:45;;;;;;;6.35;1.45;;;;;;;;;;5065633;28;20072;-63
2022/06/28 11:41:12;;;;;;;3.05;1.23;;;;;;;;;;5071041;28;20064;-64
2022/06/28 11:43:38;;;;;;;4.55;1.30;;;;;;;;;;5076669;28;20044;-64
2022/06/28 11:46:04;;;;;;;5.05;1.50;;;;;;;;;;5069753;28;20032;-64
2022/06/28 11:48:34;;;;;;;5.85;1.10;;;;;;;;;;5069777;28;20460;-64
2022/06/28 11:51:00;;;;;;;2.60;1.40;;;;;;;;;;5069200;28;20039;-64
2022/06/28 11:53:30;;;;;;;5.03;1.35;;;;;;;;;;5073866;28;20079;-64
2022/06/28 11:55:56;;;;;;;4.10;1.40;;;;;;;;;;5071034;28;20124;-64
2022/06/28 11:58:30;;;;;;;5.70;1.40;;;;;;;;;;5065261;28;20040;-62
2022/06/28 12:01:05;;;;;;;3.67;1.60;;;;;;;;;;5069563;28;20067;-62
2022/06/28 12:03:31;;;;;;;5.85;1.17;;;;;;;;;;5067631;28;20037;-61
2022/06/28 12:05:58;;;;;;;4.28;1.40;;;;;;;;;;5075801;28;20151;-61
2022/06/28 12:08:42;;;;;;;4.95;1.63;;;;;;;;;;5079828;28;20055;-61
2022/06/28 12:11:09;;;;;;;4.70;1.42;;;;;;;;;;5060677;28;20032;-62
2022/06/28 12:13:35;;;;;;;4.20;1.02;;;;;;;;;;5065190;28;20037;-62
2022/06/28 12:16:01;;;;;;;3.67;1.15;;;;;;;;;;5073388;28;20048;-62
2022/06/28 12:18:27;;;;;;;5.07;1.20;;;;;;;;;;5072282;28;20051;-62
2022/06/28 12:20:58;;;;;;;5.25;1.55;;;;;;;;;;5075605;28;20036;-62
2022/06/28 12:23:24;;;;;;;3.38;1.20;;;;;;;;;;5069966;28;20458;-62
2022/06/28 12:26:01;;;;;;;6.10;1.33;;;;;;;;;;5066443;28;20045;-62
2022/06/28 12:28:27;;;;;;;4.38;0.90;;;;;;;;;;5072967;28;20040;-62
2022/06/28 12:30:53;;;;;;;4.53;1.33;;;;;;;;;;5073370;28;20035;-62
2022/06/28 12:33:19;;;;;;;4.55;1.20;;;;;;;;;;5079534;28;20044;-62
2022/06/28 12:35:45;;;;;;;3.45;1.20;;;;;;;;;;5074023;28;20086;-62
2022/06/28 12:38:11;;;;;;;4.72;1.40;;;;;;;;;;5073488;28;20068;-63
2022/06/28 12:40:37;;;;;;;3.80;1.13;;;;;;;;;;5054173;28;20040;-63
2022/06/28 12:43:03;;;;;;;4.13;0.90;;;;;;;;;;5064880;28;20044;-63
2022/06/28 12:45:29;;;;;;;5.47;1.35;;;;;;;;;;5072322;28;20422;-63
2022/06/28 12:47:55;;;;;;;4.07;1.30;;;;;;;;;;5070681;28;20041;-63
2022/06/28 12:50:21;;;;;;;3.67;1.02;;;;;;;;;;5073868;28;20044;-62
2022/06/28 12:52:47;;;;;;;3.35;1.17;;;;;;;;;;5071181;28;20029;-63
2022/06/28 12:55:13;;;;;;;4.20;0.98;;;;;;;;;;5068206;28;20135;-63
2022/06/28 12:57:40;;;;;;;5.07;1.20;;;;;;;;;;5070173;28;20047;-63
2022/06/28 13:00:10;;;;;;;4.05;1.17;;;;;;;;;;5065441;28;20037;-64
2022/06/28 13:02:36;;;;;;;3.78;1.10;;;;;;;;;;5062432;28;20501;-63
2022/06/28 13:05:02;;;;;;;3.80;1.10;;;;;;;;;;5072084;28;20041;-63
2022/06/28 13:07:28;;;;;;;4.47;1.00;;;;;;;;;;5074019;28;20045;-63
2022/06/28 13:09:54;;;;;;;3.17;1.00;;;;;;;;;;5070186;28;20029;-63
2022/06/28 13:12:20;;;;;;;5.95;1.27;;;;;;;;;;5072441;28;20041;-63
2022/06/28 13:14:46;;;;;;;2.95;1.00;;;;;;;;;;5070347;28;20063;-63
2022/06/28 13:17:12;;;;;;;4.10;1.10;;;;;;;;;;5054846;28;20048;-63
2022/06/28 13:19:38;;;;;;;4.72;1.05;;;;;;;;;;5073517;28;20452;-62
2022/06/28 13:22:04;;;;;;;3.67;0.95;;;;;;;;;;5073050;28;20036;-63
2022/06/28 13:24:31;;;;;;;4.82;1.10;;;;;;;;;;5081750;28;20041;-63
2022/06/28 13:26:57;;;;;;;3.35;0.88;;;;;;;;;;5069135;28;20082;-62
2022/06/28 13:29:23;;;;;;;3.75;1.15;;;;;;;;;;5075117;28;20055;-62
2022/06/28 13:31:49;;;;;;;2.20;0.85;;;;;;;;;;5080467;28;20043;-62
2022/06/28 13:34:17;;;;;;;3.95;1.13;;;;;;;;;;5073455;28;20083;-62
2022/06/28 13:36:43;;;;;;;6.72;1.20;;;;;;;;;;5076188;28;20047;-62
2022/06/28 13:39:09;;;;;;;3.63;1.20;;;;;;;;;;5084247;28;20035;-62
2022/06/28 13:41:35;;;;;;;4.25;1.35;;;;;;;;;;5070774;28;20513;-62
2022/06/28 13:44:01;;;;;;;3.08;1.30;;;;;;;;;;5077915;28;20040;-62
2022/06/28 13:46:27;;;;;;;3.78;1.15;;;;;;;;;;5068629;28;20044;-62
2022/06/28 13:48:53;;;;;;;3.60;1.20;;;;;;;;;;5052945;28;20035;-63
2022/06/28 13:51:19;;;;;;;3.25;1.17;;;;;;;;;;5075988;28;20040;-63
2022/06/28 13:53:45;;;;;;;3.80;1.10;;;;;;;;;;5075791;28;20044;-61
2022/06/28 13:56:11;;;;;;;4.00;1.20;;;;;;;;;;5069236;28;20036;-61
2022/06/28 13:58:37;;;;;;;4.57;0.85;;;;;;;;;;5083946;28;20032;-60
2022/06/28 14:01:03;;;;;;;7.22;1.55;;;;;;;;;;5092976;28;20493;-61
2022/06/28 14:03:29;;;;;;;6.57;1.00;;;;;;;;;;5071730;28;20493;-60
2022/06/28 14:05:56;;;;;;;6.03;1.00;;;;;;;;;;5074973;28;20076;-60
2022/06/28 14:08:24;;;;;;;3.40;1.23;;;;;;;;;;5071695;28;20502;-60
2022/06/28 14:10:52;;;;;;;4.35;1.00;;;;;;;;;;5077019;28;20043;-60
2022/06/28 14:13:19;;;;;;;1.83;0.90;;;;;;;;;;5077012;28;20044;-60
2022/06/28 14:15:46;;;;;;;3.60;1.10;;;;;;;;;;5069852;28;20432;-60
2022/06/28 14:18:12;;;;;;;4.07;1.20;;;;;;;;;;5066356;28;20051;-60
2022/06/28 14:20:38;;;;;;;5.32;1.20;;;;;;;;;;5079205;28;20041;-61
2022/06/28 14:23:04;;;;;;;4.13;1.20;;;;;;;;;;5088364;28;20047;-60
2022/06/28 14:25:30;;;;;;;7.65;1.30;;;;;;;;;;5083866;28;20036;-61
2022/06/28 14:27:56;;;;;;;7.03;1.17;;;;;;;;;;5068625;28;20047;-60
2022/06/28 14:30:22;;;;;;;3.45;1.00;;;;;;;;;;5074791;28;20372;-60
2022/06/28 14:32:48;;;;;;;2.35;0.77;;;;;;;;;;5062650;28;20052;-62
2022/06/28 14:35:15;;;;;;;5.80;1.00;;;;;;;;;;5068521;28;20040;-62
2022/06/28 14:37:41;;;;;;;3.03;0.98;;;;;;;;;;5065535;28;20070;-62
2022/06/28 14:40:07;;;;;;;5.10;1.10;;;;;;;;;;5066080;28;20078;-63
2022/06/28 14:42:33;;;;;;;3.55;1.00;;;;;;;;;;5069974;28;20032;-62
2022/06/28 14:44:59;;;;;;;3.33;1.05;;;;;;;;;;5068861;28;20064;-63
2022/06/28 14:47:25;;;;;;;2.03;0.88;;;;;;;;;;5068930;28;20037;-63
2022/06/28 14:49:51;;;;;;;3.08;0.80;;;;;;;;;;5056227;28;20447;-62
2022/06/28 14:52:19;;;;;;;3.30;1.02;;;;;;;;;;5068597;28;20444;-62